Terminal Aerodrome Forecast
Issued by NWS

Home | Current Version | Previous Version | Text Only | Print | Product List | Glossary On
Versions: 1 2 3 4 5 6 7 8 9 10 11 12 13
000
FTAK31 PAFA 242336
TAFAGA
TAF
PAGA 242336Z 2500/2524 23009KT P6SM BKN035 OVC050
      TEMPO 2500/2504 24010G20KT
     FM250800 22007KT 4SM -SHRA BR SCT015 BKN025 OVC050
     FM251200 19007KT 2SM -SHRA BR OVC015=

USA.gov is the U.S. government's official web portal to all federal, state and local government web resources and services.